Jack Robertson — WDE5993 — position and weather

sailwx.info

Track history (hours):
 
Tides and Currents Weather Stations Pressure Air Temp Water Temp Dewpoint Dewpoint Depression Visibility Wind Speed Wind Dir Waves Ship Positions

Oceanographic research ship Jack Robertson (United States)

Owner: University of Washington Applied Physics Laboratory, Seattle, WA. More information available from US FCC via Universal Licensing System and Coast Guard Vessel Documentation Center.

Last reported at 2017-Jun-09 18:44 UTC. Time now 2017-Jun-26 19:09 UTC.
Position N 47°39' W 122°19'.
Warning: this ship's position is 17 days out of date.

; draft 1.7 m.

Type: Other ship. MMSI: 367374350.

Date/timePositionNaut miles runAvg speedWind from/ knotsBaromVisibWave heightAir tempDewpointWater temp
2017-Jun-09 18:44N 47°39' W 122°19'1 4.8
2017-Jun-09 18:30N 47°39' W 122°21'2 3.0
2017-Jun-09 18:00N 47°40' W 122°23'0 0.6
2017-Jun-09 17:30N 47°40' W 122°23'  
2017-Jun-05 15:59N 47°40' W 122°23'0 0.0
2017-Jun-05 15:31N 47°40' W 122°23'0 0.5
2017-Jun-05 15:00N 47°40' W 122°23'2 4.6
2017-Jun-05 14:30N 47°38' W 122°20'1 1.3
2017-Jun-05 13:30N 47°39' W 122°19'  
2017-Jun-02 20:18N 47°39' W 122°19'0 1.5
2017-Jun-02 20:00N 47°39' W 122°20'3 5.8
2017-Jun-02 19:30N 47°40' W 122°24'0 0.6
2017-Jun-02 19:00N 47°40' W 122°24'3 5.6
2017-Jun-02 18:30N 47°43' W 122°24'4 8.6
2017-Jun-02 18:00N 47°47' W 122°24'4 8.0
2017-Jun-02 17:30N 47°51' W 122°26'4 9.0
2017-Jun-02 17:00N 47°55' W 122°28'4 8.3
2017-Jun-02 16:30N 47°58' W 122°33'13 5.1
2017-Jun-02 13:59N 48°10' W 122°42'12 0.5
2017-Jun-01 15:27N 47°59' W 122°34'4 8.8
2017-Jun-01 15:01N 47°57' W 122°30'9 9.0
2017-Jun-01 14:00N 47°48' W 122°26'5 9.5
2017-Jun-01 13:31N 47°43' W 122°25'4 7.0
2017-Jun-01 13:01N 47°40' W 122°24'2 3.9
2017-Jun-01 12:31N 47°39' W 122°21'1 2.9
2017-Jun-01 12:01N 47°39' W 122°19'0 0.0
2017-May-31 23:51N 47°39' W 122°19'0 0.2
2017-May-31 23:30N 47°39' W 122°19'3 1.3
2017-May-31 21:34N 47°40' W 122°23'0 0.0
2017-May-31 21:30N 47°40' W 122°23'0 0.0
2017-May-31 21:00N 47°40' W 122°23'0 0.0
2017-May-31 20:30N 47°40' W 122°23'0 0.0
2017-May-31 20:00N 47°40' W 122°23'0 0.0
2017-May-31 19:30N 47°40' W 122°23'0 0.0
2017-May-31 19:00N 47°40' W 122°23'0 0.1
2017-May-31 18:30N 47°40' W 122°23'3 5.1
2017-May-31 18:00N 47°39' W 122°19'  
Track history (hours):
 
Tides and Currents Weather Stations Pressure Air Temp Water Temp Dewpoint Dewpoint Depression Visibility Wind Speed Wind Dir Waves Ship Positions

Oceanographic research ship Jack Robertson (United States)

Owner: University of Washington Applied Physics Laboratory, Seattle, WA. More information available from US FCC via Universal Licensing System and Coast Guard Vessel Documentation Center.

Last reported at 2017-Jun-09 18:44 UTC. Time now 2017-Jun-26 19:09 UTC.
Position N 47°39' W 122°19'.
Warning: this ship's position is 17 days out of date.

; draft 1.7 m.

Type: Other ship. MMSI: 367374350.

Date/timePositionNaut miles runAvg speedWind from/ knotsBaromVisibWave heightAir tempDewpointWater temp
2017-Jun-09 18:44N 47°39' W 122°19'1 4.8
2017-Jun-09 18:30N 47°39' W 122°21'2 3.0
2017-Jun-09 18:00N 47°40' W 122°23'0 0.6
2017-Jun-09 17:30N 47°40' W 122°23'  
2017-Jun-05 15:59N 47°40' W 122°23'0 0.0
2017-Jun-05 15:31N 47°40' W 122°23'0 0.5
2017-Jun-05 15:00N 47°40' W 122°23'2 4.6
2017-Jun-05 14:30N 47°38' W 122°20'1 1.3
2017-Jun-05 13:30N 47°39' W 122°19'  
2017-Jun-02 20:18N 47°39' W 122°19'0 1.5
2017-Jun-02 20:00N 47°39' W 122°20'3 5.8
2017-Jun-02 19:30N 47°40' W 122°24'0 0.6
2017-Jun-02 19:00N 47°40' W 122°24'3 5.6
2017-Jun-02 18:30N 47°43' W 122°24'4 8.6
2017-Jun-02 18:00N 47°47' W 122°24'4 8.0
2017-Jun-02 17:30N 47°51' W 122°26'4 9.0
2017-Jun-02 17:00N 47°55' W 122°28'4 8.3
2017-Jun-02 16:30N 47°58' W 122°33'13 5.1
2017-Jun-02 13:59N 48°10' W 122°42'12 0.5
2017-Jun-01 15:27N 47°59' W 122°34'4 8.8
2017-Jun-01 15:01N 47°57' W 122°30'9 9.0
2017-Jun-01 14:00N 47°48' W 122°26'5 9.5
2017-Jun-01 13:31N 47°43' W 122°25'4 7.0
2017-Jun-01 13:01N 47°40' W 122°24'2 3.9
2017-Jun-01 12:31N 47°39' W 122°21'1 2.9
2017-Jun-01 12:01N 47°39' W 122°19'0 0.0
2017-May-31 23:51N 47°39' W 122°19'0 0.2
2017-May-31 23:30N 47°39' W 122°19'3 1.3
2017-May-31 21:34N 47°40' W 122°23'0 0.0
2017-May-31 21:30N 47°40' W 122°23'0 0.0
2017-May-31 21:00N 47°40' W 122°23'0 0.0
2017-May-31 20:30N 47°40' W 122°23'0 0.0
2017-May-31 20:00N 47°40' W 122°23'0 0.0
2017-May-31 19:30N 47°40' W 122°23'0 0.0
2017-May-31 19:00N 47°40' W 122°23'0 0.1
2017-May-31 18:30N 47°40' W 122°23'3 5.1
2017-May-31 18:00N 47°39' W 122°19'  

Dump ship's entire track history